Time;durP1;ratioP1;P1;durP2;ratioP2;P2;SDS_P1;SDS_P2;PMS_P1;PMS_P2;Temp;Humidity;BMP_temperature;BMP_pressure;BME280_temperature;BME280_humidity;BME280_pressure;Samples;Min_cycle;Max_cycle;Signal;HPM_P1;HPM_P2
2022/11/10 00:00:19;;;;;;;55.85;36.00;;;;;;;9.16;100.00;99696.47;4898140;29;20068;-83
2022/11/10 00:02:45;;;;;;;55.38;34.65;;;;;;;9.15;100.00;99694.78;4897843;29;20660;-83
2022/11/10 00:05:11;;;;;;;50.78;33.50;;;;;;;9.16;100.00;99703.41;4881067;29;20037;-83
2022/11/10 00:07:37;;;;;;;53.38;35.80;;;;;;;9.16;100.00;99706.84;4881195;29;20073;-83
2022/11/10 00:10:03;;;;;;;53.10;35.60;;;;;;;9.10;100.00;99693.25;4880364;29;20524;-83
2022/11/10 00:12:30;;;;;;;52.78;33.65;;;;;;;9.17;100.00;99705.09;4898087;29;20043;-83
2022/11/10 00:17:40;;;;;;;57.50;36.40;;;;;;;9.12;100.00;99707.03;4858522;29;20181;-83
2022/11/10 00:20:06;;;;;;;64.10;39.47;;;;;;;9.18;100.00;99711.97;4842539;29;20041;-83
2022/11/10 00:22:35;;;;;;;57.95;38.15;;;;;;;9.17;100.00;99713.75;4869966;29;20052;-83
2022/11/10 00:25:01;;;;;;;57.60;37.10;;;;;;;9.16;100.00;99714.66;4860782;29;20059;-83
2022/11/10 00:27:26;;;;;;;61.75;36.72;;;;;;;9.16;100.00;99713.81;4876634;29;20068;-83
2022/11/10 00:29:52;;;;;;;60.97;38.00;;;;;;;9.17;100.00;99718.09;4860656;29;20077;-83
2022/11/10 00:32:17;;;;;;;64.05;39.70;;;;;;;9.14;100.00;99713.00;4876497;29;20045;-83
2022/11/10 00:34:42;;;;;;;66.53;41.25;;;;;;;9.08;100.00;99698.53;4860522;29;20028;-83
2022/11/10 00:37:08;;;;;;;58.22;39.90;;;;;;;9.14;100.00;99715.59;4860862;29;20089;-83
2022/11/10 00:39:33;;;;;;;66.97;41.63;;;;;;;9.15;100.00;99723.38;4860702;29;20036;-83
2022/11/10 00:41:58;;;;;;;61.40;40.85;;;;;;;9.15;100.00;99719.91;4876160;29;20429;-83
2022/11/10 00:44:24;;;;;;;61.97;41.53;;;;;;;9.12;100.00;99714.84;4876425;29;20064;-83
2022/11/10 00:46:49;;;;;;;61.38;41.65;;;;;;;9.15;100.00;99719.91;4860431;29;20037;-83
2022/11/10 00:49:15;;;;;;;62.95;40.63;;;;;;;9.14;100.00;99718.22;4860656;29;20649;-83
2022/11/10 00:51:40;;;;;;;62.35;41.17;;;;;;;9.13;100.00;99722.56;4879556;29;20084;-83
2022/11/10 00:54:05;;;;;;;63.08;41.17;;;;;;;9.16;100.00;99727.66;4896958;29;20499;-83
2022/11/10 00:56:31;;;;;;;62.65;40.70;;;;;;;9.14;100.00;99721.69;4897497;29;20025;-83
2022/11/10 00:58:56;;;;;;;57.92;40.20;;;;;;;9.15;100.00;99720.75;4880108;29;20056;-83
2022/11/10 01:01:24;;;;;;;66.03;41.45;;;;;;;9.08;100.00;99713.25;4880171;29;20385;-83
2022/11/10 01:03:50;;;;;;;62.72;41.05;;;;;;;9.17;100.00;99738.88;4897032;29;20057;-83
2022/11/10 01:06:17;;;;;;;57.28;37.33;;;;;;;9.15;100.00;99725.13;4897142;29;20033;-83
2022/11/10 01:08:42;;;;;;;56.15;38.70;;;;;;;9.16;100.00;99727.66;4880246;29;20037;-83
2022/11/10 01:11:14;;;;;;;56.50;38.40;;;;;;;9.05;100.00;99711.63;4880012;29;20032;-83
2022/11/10 01:13:40;;;;;;;57.80;36.88;;;;;;;9.11;100.00;99724.38;4896953;29;20029;-83
2022/11/10 01:16:06;;;;;;;61.42;39.60;;;;;;;9.19;100.00;99729.28;4879716;29;20105;-83
2022/11/10 01:18:33;;;;;;;59.05;39.97;;;;;;;9.15;100.00;99728.56;4897035;29;20059;-83
2022/11/10 01:20:58;;;;;;;59.88;38.45;;;;;;;9.12;100.00;99728.66;4879736;29;20024;-83
2022/11/10 01:23:24;;;;;;;62.70;39.92;;;;;;;9.18;100.00;99741.41;4895835;29;20032;-83
2022/11/10 01:25:49;;;;;;;59.80;39.67;;;;;;;9.15;100.00;99731.16;4838320;29;20038;-83
2022/11/10 01:28:14;;;;;;;56.78;38.65;;;;;;;9.14;100.00;99733.78;4823547;29;20431;-83
2022/11/10 01:30:40;;;;;;;59.22;37.85;;;;;;;9.13;100.00;99726.91;4839111;29;20041;-83
2022/11/10 01:33:06;;;;;;;59.75;39.53;;;;;;;9.15;100.00;99738.94;4783848;30;20047;-83
2022/11/10 01:35:33;;;;;;;57.25;38.33;;;;;;;9.15;100.00;99735.50;4784436;30;20396;-83
2022/11/10 01:37:58;;;;;;;61.90;40.83;;;;;;;9.15;100.00;99738.13;4784456;30;20093;-83
2022/11/10 01:40:24;;;;;;;62.08;41.28;;;;;;;8.97;100.00;99706.75;4784507;30;20416;-83
2022/11/10 01:42:53;;;;;;;58.08;37.92;;;;;;;9.07;100.00;99724.56;4769127;30;20041;-83
2022/11/10 01:45:21;;;;;;;59.72;39.50;;;;;;;9.15;100.00;99738.13;4769438;30;20047;-83
2022/11/10 01:47:52;;;;;;;63.55;40.80;;;;;;;9.14;100.00;99737.28;4784381;30;20035;-83
2022/11/10 01:50:18;;;;;;;;;;;;;;;9.13;100.00;99735.56;4784867;30;20043;-83
2022/11/10 01:52:47;;;;;;;58.20;37.80;;;;;;;9.10;100.00;99738.28;4784084;30;20051;-83
2022/11/10 01:55:12;;;;;;;60.78;36.45;;;;;;;9.12;100.00;99743.41;4784015;30;20035;-83
2022/11/10 01:57:39;;;;;;;57.95;38.40;;;;;;;9.10;100.00;99743.50;4769115;30;20090;-83
2022/11/10 02:00:06;;;;;;;58.33;37.95;;;;;;;9.07;100.00;99742.75;4783969;30;20038;-83
2022/11/10 02:02:38;;;;;;;60.20;38.13;;;;;;;9.08;100.00;99747.03;4794633;29;20041;-83
2022/11/10 02:05:04;;;;;;;56.90;38.58;;;;;;;9.12;100.00;99756.41;4890740;29;20044;-83
2022/11/10 02:07:30;;;;;;;65.65;40.63;;;;;;;9.06;100.00;99748.84;4879642;29;20037;-83
2022/11/10 02:09:56;;;;;;;58.50;36.75;;;;;;;9.04;100.00;99748.91;4896147;29;20060;-83
2022/11/10 02:12:35;;;;;;;58.13;37.22;;;;;;;9.11;100.00;99752.13;4879772;29;20445;-83
2022/11/10 02:15:06;;;;;;;55.40;36.47;;;;;;;9.14;100.00;99762.38;4896225;29;20035;-83
2022/11/10 02:17:32;;;;;;;58.92;37.65;;;;;;;9.09;100.00;99746.13;4879473;29;20032;-83
2022/11/10 02:19:59;;;;;;;57.72;38.90;;;;;;;9.08;100.00;99750.47;4896080;29;20035;-83
2022/11/10 02:22:24;;;;;;;55.45;36.92;;;;;;;9.12;100.00;99762.44;4837963;29;20095;-83
2022/11/10 02:24:50;;;;;;;58.90;37.10;;;;;;;9.10;100.00;99759.09;4822625;29;20216;-83
2022/11/10 02:27:15;;;;;;;55.03;37.15;;;;;;;9.11;100.00;99767.72;4822971;29;20042;-83
2022/11/10 02:29:40;;;;;;;59.20;38.08;;;;;;;9.08;100.00;99760.03;4838351;29;20207;-83
2022/11/10 02:32:06;;;;;;;54.72;35.67;;;;;;;9.09;100.00;99767.75;4838031;29;20468;-83
2022/11/10 02:34:31;;;;;;;56.58;35.63;;;;;;;9.09;100.00;99772.13;4840472;29;20109;-83
2022/11/10 02:36:57;;;;;;;55.95;35.65;;;;;;;9.10;100.00;99766.00;4841465;29;20046;-83
2022/11/10 02:39:22;;;;;;;51.47;33.28;;;;;;;9.09;100.00;99767.75;4826073;29;20120;-83
2022/11/10 02:41:47;;;;;;;51.55;33.58;;;;;;;9.05;100.00;99755.78;4826016;29;20046;-83
2022/11/10 02:44:13;;;;;;;57.13;36.35;;;;;;;9.07;100.00;99763.53;4841121;29;20486;-83
2022/11/10 02:46:38;;;;;;;50.45;34.78;;;;;;;9.12;100.00;99775.44;4841480;29;20082;-83
2022/11/10 02:49:03;;;;;;;51.20;35.03;;;;;;;9.12;100.00;99782.41;4841017;29;20066;-83
2022/11/10 02:51:29;;;;;;;54.28;34.83;;;;;;;9.09;100.00;99785.09;4841381;29;20161;-83
2022/11/10 02:53:54;;;;;;;56.05;38.33;;;;;;;8.98;100.00;99764.75;4882408;29;20528;-83
2022/11/10 02:56:20;;;;;;;59.78;40.40;;;;;;;9.08;100.00;99786.00;4882553;29;20033;-83
2022/11/10 02:58:45;;;;;;;65.38;40.83;;;;;;;9.11;100.00;99786.75;4899475;29;20021;-83
2022/11/10 03:01:10;;;;;;;62.70;42.10;;;;;;;9.07;100.00;99787.78;4882303;29;20036;-83
2022/11/10 03:03:36;;;;;;;63.33;41.05;;;;;;;9.01;100.00;99764.59;4882376;29;20115;-83
2022/11/10 03:06:01;;;;;;;64.53;41.17;;;;;;;9.06;100.00;99783.50;4898916;29;20033;-83
2022/11/10 03:08:27;;;;;;;58.15;38.97;;;;;;;8.95;100.00;99780.44;4882184;29;20483;-83
2022/11/10 03:10:54;;;;;;;54.42;36.95;;;;;;;9.04;100.00;99787.03;4882215;29;20072;-83
2022/11/10 03:13:19;;;;;;;54.47;37.92;;;;;;;9.02;100.00;99802.69;4899024;29;20477;-83
2022/11/10 03:15:46;;;;;;;55.95;36.85;;;;;;;9.07;100.00;99812.91;4882183;29;20039;-83
2022/11/10 03:18:12;;;;;;;55.53;36.28;;;;;;;9.08;100.00;99815.44;4898664;29;20037;-83
2022/11/10 03:20:37;;;;;;;51.05;34.80;;;;;;;9.08;100.00;99818.03;4898915;29;20454;-83
2022/11/10 03:23:04;;;;;;;59.05;36.35;;;;;;;9.04;100.00;99810.41;4898750;29;20056;-83
2022/11/10 03:25:29;;;;;;;53.47;34.92;;;;;;;9.07;100.00;99810.31;4881976;29;20350;-83
2022/11/10 03:27:55;;;;;;;50.35;34.78;;;;;;;9.07;100.00;99818.09;4898692;29;20239;-83
2022/11/10 03:30:20;;;;;;;50.53;32.90;;;;;;;9.13;100.00;99830.84;4898841;29;20382;-83
2022/11/10 03:32:45;;;;;;;51.83;34.38;;;;;;;9.16;100.00;99828.16;4898895;29;20024;-83
2022/11/10 03:35:11;;;;;;;53.30;34.83;;;;;;;9.15;100.00;99826.47;4881531;29;20021;-83
2022/11/10 03:37:36;;;;;;;56.22;36.60;;;;;;;9.11;100.00;99814.50;4898828;29;20116;-83
2022/11/10 03:40:02;;;;;;;52.65;36.05;;;;;;;9.14;100.00;99824.75;4881629;29;20025;-83
2022/11/10 03:42:27;;;;;;;52.45;35.00;;;;;;;9.14;100.00;99828.22;4881707;29;20127;-83
2022/11/10 03:44:52;;;;;;;57.22;35.88;;;;;;;9.14;100.00;99823.03;4897744;29;20576;-83
2022/11/10 03:47:18;;;;;;;54.90;36.05;;;;;;;9.08;100.00;99809.41;4881327;29;20164;-83
2022/11/10 03:49:43;;;;;;;54.65;36.05;;;;;;;9.11;100.00;99830.91;4898267;29;20084;-83
2022/11/10 03:52:09;;;;;;;51.40;35.17;;;;;;;9.10;100.00;99825.75;4897998;29;20056;-83
2022/11/10 03:54:34;;;;;;;57.42;36.33;;;;;;;9.09;100.00;99830.13;4881483;29;20092;-83
2022/11/10 03:56:59;;;;;;;49.88;32.95;;;;;;;9.07;100.00;99833.69;4881175;29;20035;-83
2022/11/10 03:59:25;;;;;;;50.85;32.70;;;;;;;8.96;100.00;99818.50;4898577;29;20088;-83
2022/11/10 04:01:50;;;;;;;47.42;33.17;;;;;;;9.01;100.00;99832.16;4881202;29;20170;-83
2022/11/10 04:09:43;;;;;;;47.85;32.60;;;;;;;8.99;100.00;99834.81;4898261;29;20043;-83
2022/11/10 04:17:36;;;;;;;46.40;32.33;;;;;;;8.89;100.00;99824.81;4897907;29;20425;-83
2022/11/10 04:20:02;;;;;;;52.72;33.92;;;;;;;8.89;100.00;99828.28;4897667;29;20017;-82
2022/11/10 04:25:12;;;;;;;52.67;34.10;;;;;;;8.81;100.00;99825.13;4897525;29;20096;-83
2022/11/10 04:27:38;;;;;;;48.40;33.65;;;;;;;8.80;100.00;99833.78;4897633;29;20032;-83
2022/11/10 04:30:04;;;;;;;45.42;32.40;;;;;;;8.77;100.00;99846.06;4880754;29;20167;-83
2022/11/10 04:32:30;;;;;;;45.47;33.17;;;;;;;8.80;100.00;99853.72;4897782;29;20048;-82
2022/11/10 04:34:55;;;;;;;48.35;33.42;;;;;;;8.79;100.00;99862.41;4897759;29;20028;-82
2022/11/10 04:37:20;;;;;;;45.60;32.20;;;;;;;8.79;100.00;99867.63;4897371;29;20024;-82
2022/11/10 04:39:46;;;;;;;49.92;33.60;;;;;;;8.78;100.00;99876.31;4897428;29;20025;-82
2022/11/10 04:42:11;;;;;;;51.72;33.72;;;;;;;8.72;100.00;99875.63;4880208;29;20025;-82
2022/11/10 04:44:37;;;;;;;49.17;32.45;;;;;;;8.62;100.00;99866.47;4897527;29;20028;-81
2022/11/10 04:47:02;;;;;;;44.70;32.00;;;;;;;8.75;100.00;99890.25;4897242;29;20028;-82
2022/11/10 04:49:27;;;;;;;47.63;31.65;;;;;;;8.67;100.00;99887.06;4897605;29;20028;-82
2022/11/10 04:51:53;;;;;;;49.90;31.50;;;;;;;8.69;100.00;99886.13;4897339;29;20048;-82
2022/11/10 04:54:18;;;;;;;43.80;31.30;;;;;;;8.68;100.00;99889.63;4880101;29;20021;-82
2022/11/10 04:56:43;;;;;;;44.83;30.52;;;;;;;8.61;100.00;99882.94;4896880;29;20059;-82
2022/11/10 04:59:09;;;;;;;46.60;29.85;;;;;;;8.53;100.00;99871.97;4880261;29;20476;-82
2022/11/10 05:01:34;;;;;;;44.20;30.35;;;;;;;8.56;100.00;99890.06;4880480;29;20020;-82
2022/11/10 05:04:00;;;;;;;48.00;31.70;;;;;;;8.60;100.00;99899.44;4897066;29;20452;-82
2022/11/10 05:06:26;;;;;;;45.30;30.25;;;;;;;8.62;100.00;99899.38;4897097;29;20057;-82
2022/11/10 05:08:51;;;;;;;46.35;31.63;;;;;;;8.58;100.00;99892.59;4857253;29;20744;-82
2022/11/10 05:11:17;;;;;;;42.30;29.95;;;;;;;8.62;100.00;99905.41;4857176;29;20041;-82
2022/11/10 05:13:44;;;;;;;44.80;29.95;;;;;;;8.62;100.00;99910.59;4857568;29;20459;-82
2022/11/10 05:16:10;;;;;;;46.33;30.50;;;;;;;8.53;100.00;99899.69;4857217;29;20056;-82
2022/11/10 05:18:35;;;;;;;45.38;32.35;;;;;;;8.60;100.00;99917.59;4857423;29;20041;-82
2022/11/10 05:21:01;;;;;;;42.58;30.05;;;;;;;8.55;100.00;99922.09;4857076;29;20049;-82
2022/11/10 05:23:39;;;;;;;44.42;30.42;;;;;;;8.49;100.00;99910.16;4857522;29;20037;-82
2022/11/10 05:26:06;;;;;;;39.92;28.92;;;;;;;8.60;100.00;99927.16;4857032;29;20029;-82
2022/11/10 05:28:32;;;;;;;40.10;29.13;;;;;;;8.56;100.00;99925.56;4857354;29;20097;-82
2022/11/10 05:30:57;;;;;;;43.65;29.55;;;;;;;8.56;100.00;99935.94;4857441;29;20046;-82
2022/11/10 05:33:23;;;;;;;48.25;33.53;;;;;;;8.53;100.00;99936.88;4856706;29;20375;-82
2022/11/10 05:35:49;;;;;;;52.30;35.75;;;;;;;8.48;100.00;99937.03;4857241;29;20561;-82
2022/11/10 05:38:15;;;;;;;53.08;35.15;;;;;;;8.49;100.00;99943.91;4856925;29;20045;-82
2022/11/10 05:40:40;;;;;;;53.03;35.00;;;;;;;8.52;100.00;99952.53;4873901;29;20048;-82
2022/11/10 05:43:06;;;;;;;43.15;31.40;;;;;;;8.55;100.00;99955.84;4896900;29;20107;-82
2022/11/10 05:45:31;;;;;;;42.47;30.13;;;;;;;8.49;100.00;99946.50;4896549;29;20068;-82
2022/11/10 05:47:57;;;;;;;40.90;29.33;;;;;;;8.38;100.00;99933.03;4880114;29;20032;-83
2022/11/10 05:50:23;;;;;;;42.22;30.13;;;;;;;8.47;100.00;99947.47;4879634;29;20385;-82
2022/11/10 05:52:51;;;;;;;36.28;25.85;;;;;;;8.47;100.00;99960.47;4896485;29;20040;-82
2022/11/10 05:55:19;;;;;;;42.67;27.25;;;;;;;8.50;100.00;99955.16;4896351;29;20021;-83
2022/11/10 05:57:46;;;;;;;39.65;26.75;;;;;;;8.58;100.00;99976.50;4896835;29;20468;-83
2022/11/10 06:00:13;;;;;;;41.28;28.83;;;;;;;8.58;100.00;99976.50;4896300;29;20032;-82
2022/11/10 06:02:39;;;;;;;43.63;29.73;;;;;;;8.61;100.00;99972.97;4896955;29;20035;-82
2022/11/10 06:05:05;;;;;;;43.92;30.80;;;;;;;8.61;100.00;99986.81;4896267;29;20108;-82
2022/11/10 06:07:31;;;;;;;44.03;30.08;;;;;;;8.59;100.00;99985.16;4896411;29;20060;-82
2022/11/10 06:09:56;;;;;;;41.05;29.20;;;;;;;8.58;100.00;99996.44;4899492;29;20406;-82
2022/11/10 06:12:23;;;;;;;42.00;30.83;;;;;;;8.50;100.00;99989.75;4900281;29;20104;-82
2022/11/10 06:14:49;;;;;;;42.25;29.00;;;;;;;8.53;100.00;100000.94;4883134;29;20453;-83
2022/11/10 06:17:15;;;;;;;40.58;29.77;;;;;;;8.48;100.00;100012.31;4882848;29;20020;-82
2022/11/10 06:19:40;;;;;;;45.65;29.80;;;;;;;8.52;100.00;100025.22;4899995;29;20033;-83
2022/11/10 06:22:06;;;;;;;43.55;30.52;;;;;;;8.55;100.00;100027.69;4899477;29;20396;-82
2022/11/10 06:24:31;;;;;;;49.13;31.98;;;;;;;8.56;100.00;100037.19;4883122;29;20029;-83
2022/11/10 06:26:56;;;;;;;43.25;29.85;;;;;;;8.54;100.00;100026.00;4899883;29;20029;-82
2022/11/10 06:29:22;;;;;;;49.83;31.83;;;;;;;8.45;100.00;100024.53;4899936;29;20418;-82
2022/11/10 06:31:47;;;;;;;45.08;31.05;;;;;;;8.46;100.00;100028.81;4882935;29;20119;-82
2022/11/10 06:34:12;;;;;;;45.63;30.95;;;;;;;8.48;100.00;100040.88;4882475;29;20469;-82
2022/11/10 06:36:39;;;;;;;45.80;30.88;;;;;;;8.45;100.00;100045.31;4899854;29;20028;-83
2022/11/10 06:39:05;;;;;;;55.65;30.52;;;;;;;8.40;100.00;100049.81;4878309;29;20028;-83
2022/11/10 06:41:30;;;;;;;42.20;29.63;;;;;;;8.39;100.00;100061.94;4872189;29;20029;-82
2022/11/10 06:43:56;;;;;;;42.60;29.15;;;;;;;8.30;100.00;100051.81;4871266;29;20036;-82
2022/11/10 06:46:21;;;;;;;44.17;30.55;;;;;;;8.35;100.00;100069.84;4880686;29;20036;-82
2022/11/10 06:48:46;;;;;;;38.03;26.40;;;;;;;8.30;100.00;100061.31;4880860;29;20033;-82
2022/11/10 06:51:12;;;;;;;47.65;28.42;;;;;;;8.40;100.00;100084.38;4880736;29;20381;-82
2022/11/10 06:53:37;;;;;;;44.78;28.65;;;;;;;8.40;100.00;100076.59;4880983;29;20024;-82
2022/11/10 06:56:03;;;;;;;39.50;27.67;;;;;;;8.36;100.00;100076.72;4865950;29;20029;-82
2022/11/10 06:58:28;;;;;;;44.20;30.48;;;;;;;8.36;100.00;100079.31;4882316;29;20021;-82
2022/11/10 07:00:54;;;;;;;44.00;28.77;;;;;;;8.39;100.00;100087.88;4876045;29;20111;-82
2022/11/10 07:03:19;;;;;;;36.15;24.35;;;;;;;8.37;100.00;100092.25;4869383;29;20466;-82
2022/11/10 07:05:44;;;;;;;38.03;23.48;;;;;;;8.43;100.00;100093.84;4881101;29;20029;-83
2022/11/10 07:08:15;;;;;;;33.22;21.70;;;;;;;8.57;100.00;100117.63;4880170;29;20407;-82
2022/11/10 07:10:50;;;;;;;33.00;23.17;;;;;;;8.66;100.00;100122.53;4863656;29;20036;-82
2022/11/10 07:13:15;;;;;;;29.88;19.75;;;;;;;8.70;100.00;100126.72;4879405;29;20382;-82
2022/11/10 07:15:41;;;;;;;32.53;21.30;;;;;;;8.63;100.00;100109.63;4879814;29;20029;-82
2022/11/10 07:18:07;;;;;;;26.80;18.17;;;;;;;8.75;100.00;100127.41;4863369;29;20025;-83
2022/11/10 07:20:33;;;;;;;25.40;18.42;;;;;;;8.83;100.00;100134.13;4840098;29;20491;-82
2022/11/10 07:23:03;;;;;;;24.17;16.92;;;;;;;8.87;100.00;100136.56;4840209;29;20053;-83
2022/11/10 07:25:31;;;;;;;22.83;16.17;;;;;;;8.89;100.00;100139.13;4840335;29;20042;-83
2022/11/10 07:27:58;;;;;;;20.33;15.55;;;;;;;8.94;100.00;100140.69;4824925;29;20534;-83
2022/11/10 07:30:25;;;;;;;23.35;15.90;;;;;;;8.97;100.00;100150.13;4840001;29;20084;-82
2022/11/10 07:33:00;;;;;;;21.35;14.32;;;;;;;8.98;100.00;100157.88;4840183;29;20037;-83
2022/11/10 07:35:27;;;;;;;17.10;13.00;;;;;;;8.95;100.00;100149.31;4840435;29;20038;-82
2022/11/10 07:37:54;;;;;;;18.17;13.10;;;;;;;8.99;100.00;100156.97;4840603;29;20030;-82
2022/11/10 07:40:20;;;;;;;18.75;12.45;;;;;;;8.98;100.00;100146.63;4840340;29;20398;-82
2022/11/10 07:42:45;;;;;;;16.58;11.95;;;;;;;9.07;100.00;100161.94;4840459;29;20086;-83
2022/11/10 07:45:11;;;;;;;19.75;12.63;;;;;;;9.05;100.00;100155.06;4840235;29;20471;-83
2022/11/10 07:47:36;;;;;;;19.15;12.60;;;;;;;9.10;100.00;100167.03;4840356;29;20065;-83
2022/11/10 07:50:01;;;;;;;19.77;13.18;;;;;;;9.13;100.00;100172.09;4840362;29;20033;-82
2022/11/10 07:52:27;;;;;;;19.95;12.68;;;;;;;9.19;100.00;100166.72;4874468;29;20041;-83
2022/11/10 07:54:52;;;;;;;19.05;12.25;;;;;;;9.31;100.00;100164.59;4862855;29;20084;-83
2022/11/10 07:57:17;;;;;;;16.98;12.40;;;;;;;9.53;100.00;100182.97;4879450;29;20049;-82
2022/11/10 07:59:43;;;;;;;16.55;12.70;;;;;;;9.72;100.00;100176.22;4879872;29;20480;-83
2022/11/10 08:02:10;;;;;;;18.92;13.38;;;;;;;9.87;100.00;100188.69;4862688;29;20389;-83
2022/11/10 08:04:36;;;;;;;21.65;13.60;;;;;;;10.01;100.00;100188.19;4862941;29;20108;-83
2022/11/10 08:07:01;;;;;;;17.48;12.23;;;;;;;10.11;100.00;100192.19;4862719;29;20173;-83
2022/11/10 08:09:27;;;;;;;19.48;12.48;;;;;;;10.23;100.00;100194.31;4879141;29;20109;-83
2022/11/10 08:11:52;;;;;;;16.30;11.20;;;;;;;10.33;100.00;100194.88;4879389;29;20062;-83
2022/11/10 08:14:17;;;;;;;18.95;11.55;;;;;;;10.44;100.00;100190.09;4862131;29;20373;-83
2022/11/10 08:16:43;;;;;;;15.57;11.25;;;;;;;10.57;100.00;100195.72;4879164;29;20057;-82
2022/11/10 08:19:08;;;;;;;14.45;10.05;;;;;;;10.59;100.00;100208.69;4862603;29;20173;-83
2022/11/10 08:21:34;;;;;;;14.60;9.75;;;;;;;10.61;100.00;100210.31;4878950;29;20099;-83
2022/11/10 08:23:59;;;;;;;16.40;10.02;;;;;;;10.63;100.00;100205.91;4862460;29;20035;-83
2022/11/10 08:26:24;;;;;;;12.32;9.32;;;;;;;10.68;100.00;100217.00;4878754;29;20040;-83
2022/11/10 08:28:50;;;;;;;16.73;10.35;;;;;;;10.72;100.00;100220.34;4879030;29;20021;-83
2022/11/10 08:31:15;;;;;;;13.52;9.32;;;;;;;10.76;100.00;100223.69;4861385;29;20393;-83
2022/11/10 08:33:41;;;;;;;12.90;9.20;;;;;;;10.77;100.00;100230.59;4879013;29;20036;-83
2022/11/10 08:36:07;;;;;;;12.05;9.13;;;;;;;10.74;100.00;100227.22;4878872;29;20052;-83
2022/11/10 08:38:32;;;;;;;14.65;7.93;;;;;;;10.68;100.00;100217.00;4861882;29;20029;-83
2022/11/10 08:40:57;;;;;;;10.85;8.05;;;;;;;10.93;100.00;100232.53;4862174;29;20048;-83
2022/11/10 08:43:23;;;;;;;11.32;8.52;;;;;;;11.17;100.00;100251.59;4878538;29;20033;-83
2022/11/10 08:45:48;;;;;;;11.85;8.07;;;;;;;11.43;100.00;100247.94;4861899;29;20444;-83
2022/11/10 08:48:17;;;;;;;15.02;8.68;;;;;;;11.57;100.00;100243.91;4878622;29;20134;-83
2022/11/10 08:50:43;;;;;;;14.27;7.97;;;;;;;11.73;100.00;100258.03;4862040;29;20473;-83
2022/11/10 08:53:11;;;;;;;8.93;7.55;;;;;;;11.63;100.00;100268.00;4878654;29;20033;-83
2022/11/10 08:55:36;;;;;;;13.27;7.60;;;;;;;11.60;100.00;100267.28;4878353;29;20040;-83
2022/11/10 08:58:03;;;;;;;12.60;7.32;;;;;;;11.54;100.00;100270.97;4878539;29;20493;-83
2022/11/10 09:00:30;;;;;;;10.27;6.75;;;;;;;11.39;100.00;100275.06;4878092;29;20028;-83
2022/11/10 09:03:03;;;;;;;10.30;6.20;;;;;;;11.30;100.00;100274.59;4878512;29;20033;-83
2022/11/10 09:05:28;;;;;;;10.85;6.53;;;;;;;11.29;100.00;100280.69;4861526;29;20036;-83
2022/11/10 09:07:54;;;;;;;10.02;6.75;;;;;;;11.34;100.00;100287.44;4861684;29;20029;-83
2022/11/10 09:10:20;;;;;;;11.60;7.03;;;;;;;11.58;100.00;100287.34;4878521;29;20369;-83
2022/11/10 09:12:45;;;;;;;11.02;6.72;;;;;;;11.85;100.00;100288.88;4861587;29;20232;-83
2022/11/10 09:15:11;;;;;;;12.48;6.25;;;;;;;11.98;100.00;100290.06;4861598;29;20482;-83
2022/11/10 09:17:38;;;;;;;13.50;5.78;;;;;;;12.06;100.00;100294.13;4861573;29;20036;-83
2022/11/10 09:20:05;;;;;;;10.90;6.35;;;;;;;12.14;100.00;100305.94;4878536;29;20061;-83
2022/11/10 09:22:30;;;;;;;9.65;5.80;;;;;;;12.18;100.00;100320.56;4877845;29;20128;-83
2022/11/10 09:24:56;;;;;;;10.48;5.65;;;;;;;12.17;100.00;100312.75;4878273;29;20025;-83
2022/11/10 09:27:21;;;;;;;9.57;5.78;;;;;;;12.11;100.00;100313.03;4861220;29;20073;-83
2022/11/10 09:29:47;;;;;;;12.27;5.45;;;;;;;12.03;100.00;100318.56;4861406;29;20021;-83
2022/11/10 09:32:12;;;;;;;6.97;5.03;;;;;;;11.89;100.00;100313.94;4878371;29;20413;-83
2022/11/10 09:34:38;;;;;;;8.05;4.90;;;;;;;11.77;100.00;100310.94;4861013;29;20021;-83
2022/11/10 09:37:03;;;;;;;7.85;5.13;;;;;;;11.66;100.00;100317.44;4861510;29;20032;-83
2022/11/10 09:39:28;;;;;;;12.85;5.20;;;;;;;11.68;100.00;100336.50;4877865;29;20478;-83
2022/11/10 09:41:54;;;;;;;9.23;5.28;;;;;;;11.56;100.00;100313.50;4878077;29;20029;-83
2022/11/10 09:44:26;;;;;;;11.77;5.80;;;;;;;11.67;100.00;100333.94;4880265;29;20057;-83
2022/11/10 09:47:10;;;;;;;11.18;5.50;;;;;;;11.66;100.00;100322.66;4865250;29;20507;-83
2022/11/10 09:49:40;;;;;;;11.45;5.10;;;;;;;11.69;100.00;100332.13;4882042;29;20029;-83
2022/11/10 09:52:10;;;;;;;12.80;5.28;;;;;;;11.69;100.00;100342.56;4881813;29;20061;-83
2022/11/10 09:55:20;;;;;;;10.52;5.10;;;;;;;11.72;100.00;100338.09;4881310;29;20031;-83
2022/11/10 09:57:47;;;;;;;9.32;4.85;;;;;;;11.72;100.00;100330.25;4788043;30;20058;-83
2022/11/10 10:00:16;;;;;;;7.00;4.82;;;;;;;11.83;100.00;100339.44;4787872;30;20031;-83
2022/11/10 10:02:49;;;;;;;8.15;4.90;;;;;;;11.86;100.00;100337.56;4772493;30;20097;-83
2022/11/10 10:05:36;;;;;;;11.80;4.70;;;;;;;12.00;100.00;100347.41;4787736;30;20046;-83
2022/11/10 10:08:04;;;;;;;12.63;5.18;;;;;;;11.99;100.00;100338.75;4772706;30;20043;-83
2022/11/10 10:10:32;;;;;;;11.20;5.60;;;;;;;12.08;100.00;100353.16;4787371;30;20079;-83
2022/11/10 10:13:13;;;;;;;12.38;5.35;;;;;;;12.05;100.00;100342.88;4772535;30;20036;-83
2022/11/10 10:15:48;;;;;;;13.13;4.40;;;;;;;11.95;100.00;100345.00;4787364;30;20488;-83
2022/11/10 10:18:45;;;;;;;6.80;4.30;;;;;;;11.90;100.00;100356.56;4787913;30;20035;-83
2022/11/10 10:21:29;;;;;;;8.27;4.38;;;;;;;11.87;100.00;100356.66;4751403;30;20197;-83
2022/11/10 10:23:58;;;;;;;9.25;4.82;;;;;;;11.85;100.00;100355.91;4736946;30;20036;-83
2022/11/10 10:26:30;;;;;;;12.32;4.68;;;;;;;11.83;100.00;100347.25;4751274;30;20040;-83
2022/11/10 10:29:00;;;;;;;8.20;4.43;;;;;;;11.88;100.00;100351.41;4736936;30;20036;-83
2022/11/10 10:31:31;;;;;;;13.35;5.45;;;;;;;11.90;100.00;100341.72;4751523;30;20070;-83
2022/11/10 10:33:56;;;;;;;10.88;4.72;;;;;;;12.03;100.00;100352.53;4779513;29;20235;-83
2022/11/10 10:36:25;;;;;;;9.95;4.60;;;;;;;12.11;100.00;100341.75;4804859;29;20114;-83
2022/11/10 10:38:56;;;;;;;12.43;4.68;;;;;;;12.12;100.00;100349.53;4789998;29;20037;-83
2022/11/10 10:41:27;;;;;;;11.68;4.50;;;;;;;12.18;100.00;100351.91;4804960;29;20034;-83
2022/11/10 10:43:55;;;;;;;8.98;4.30;;;;;;;12.12;100.00;100349.53;4790066;29;20423;-83
2022/11/10 10:46:28;;;;;;;8.18;4.40;;;;;;;12.16;100.00;100352.84;4789721;29;20039;-83
2022/11/10 10:49:18;;;;;;;10.95;4.07;;;;;;;12.24;100.00;100345.56;4804856;29;20034;-83
2022/11/10 10:51:44;;;;;;;9.32;4.57;;;;;;;12.49;100.00;100351.41;4804617;29;20194;-83
2022/11/10 10:54:26;;;;;;;9.68;4.60;;;;;;;12.62;100.00;100343.06;4804636;29;20071;-83
2022/11/10 10:57:23;;;;;;;10.15;4.70;;;;;;;12.83;100.00;100357.78;4805275;29;20043;-83
2022/11/10 10:59:50;;;;;;;8.75;3.95;;;;;;;12.88;100.00;100354.97;4863938;29;20027;-83
2022/11/10 11:02:29;;;;;;;8.43;4.10;;;;;;;12.87;100.00;100361.13;4863855;29;20037;-83
2022/11/10 11:05:12;;;;;;;10.07;3.42;;;;;;;12.84;98.74;100361.25;4880554;29;20020;-83
2022/11/10 11:07:38;;;;;;;7.70;3.45;;;;;;;12.76;97.73;100345.88;4863342;29;20033;-83
2022/11/10 11:10:20;;;;;;;7.68;3.45;;;;;;;12.86;96.58;100362.88;4863803;29;20021;-83
2022/11/10 11:12:46;;;;;;;7.60;3.35;;;;;;;12.95;96.31;100366.84;4880551;29;20072;-83
2022/11/10 11:15:17;;;;;;;7.82;3.20;;;;;;;13.01;96.85;100360.47;4880428;29;20117;-83
2022/11/10 11:17:53;;;;;;;6.97;3.88;;;;;;;13.05;96.86;100360.28;4863255;29;20109;-83
2022/11/10 11:20:25;;;;;;;5.47;3.00;;;;;;;13.16;96.13;100355.41;4880487;29;20025;-83
2022/11/10 11:23:06;;;;;;;10.40;3.72;;;;;;;13.31;95.85;100369.56;4863422;29;20083;-83
2022/11/10 11:25:35;;;;;;;7.10;3.17;;;;;;;13.32;95.08;100363.44;4879859;29;20761;-83
2022/11/10 11:28:34;;;;;;;7.78;3.38;;;;;;;13.37;93.70;100360.59;4880111;29;20379;-83
2022/11/10 11:31:27;;;;;;;5.78;3.10;;;;;;;13.28;92.99;100371.50;4863429;29;20085;-83